sensor_id;sensor_type;location;lat;lon;timestamp;P1;durP1;ratioP1;P2;durP2;ratioP2
15002;SDS011;7597;53.590;10.020;2023-03-24T06:54:20;5.30;;;4.80;;
15002;SDS011;7597;53.590;10.020;2023-03-24T06:56:47;5.30;;;4.80;;
15002;SDS011;7597;53.590;10.020;2023-03-24T06:59:13;5.55;;;5.05;;
15002;SDS011;7597;53.590;10.020;2023-03-24T07:01:40;6.20;;;5.60;;
15002;SDS011;7597;53.590;10.020;2023-03-24T07:04:07;6.57;;;5.97;;
15002;SDS011;7597;53.590;10.020;2023-03-24T07:06:33;6.40;;;5.80;;
15002;SDS011;7597;53.590;10.020;2023-03-24T07:09:00;7.43;;;5.93;;
15002;SDS011;7597;53.590;10.020;2023-03-24T07:11:27;8.48;;;6.65;;
15002;SDS011;7597;53.590;10.020;2023-03-24T07:13:53;6.90;;;6.20;;
15002;SDS011;7597;53.590;10.020;2023-03-24T07:16:20;4.65;;;4.10;;
15002;SDS011;7597;53.590;10.020;2023-03-24T07:18:47;4.60;;;3.90;;
15002;SDS011;7597;53.590;10.020;2023-03-24T14:05:28;6.83;;;2.60;;
15002;SDS011;7597;53.590;10.020;2023-03-24T14:07:45;0.57;;;0.47;;
15002;SDS011;7597;53.590;10.020;2023-03-24T14:10:35;5.05;;;1.90;;
15002;SDS011;7597;53.590;10.020;2023-03-24T14:13:00;7.78;;;2.40;;
15002;SDS011;7597;53.590;10.020;2023-03-24T14:15:33;0.60;;;0.20;;
15002;SDS011;7597;53.590;10.020;2023-03-24T14:20:38;6.30;;;2.60;;
15002;SDS011;7597;53.590;10.020;2023-03-24T14:23:05;6.27;;;2.50;;
15002;SDS011;7597;53.590;10.020;2023-03-24T14:25:32;5.82;;;2.50;;
15002;SDS011;7597;53.590;10.020;2023-03-24T14:28:19;5.90;;;2.12;;
15002;SDS011;7597;53.590;10.020;2023-03-24T14:33:23;7.83;;;2.97;;
15002;SDS011;7597;53.590;10.020;2023-03-24T14:35:50;5.37;;;2.28;;
15002;SDS011;7597;53.590;10.020;2023-03-24T14:38:20;6.65;;;2.50;;
15002;SDS011;7597;53.590;10.020;2023-03-24T14:40:47;4.80;;;2.28;;
15002;SDS011;7597;53.590;10.020;2023-03-24T14:43:20;5.47;;;2.40;;
15002;SDS011;7597;53.590;10.020;2023-03-24T14:45:50;5.63;;;2.47;;
15002;SDS011;7597;53.590;10.020;2023-03-24T14:48:39;5.43;;;2.40;;
15002;SDS011;7597;53.590;10.020;2023-03-24T14:51:15;8.93;;;2.62;;
15002;SDS011;7597;53.590;10.020;2023-03-24T14:53:45;6.80;;;2.47;;
15002;SDS011;7597;53.590;10.020;2023-03-24T14:56:13;5.87;;;2.20;;
15002;SDS011;7597;53.590;10.020;2023-03-24T14:58:39;6.32;;;2.20;;
15002;SDS011;7597;53.590;10.020;2023-03-24T15:01:06;4.72;;;2.10;;
15002;SDS011;7597;53.590;10.020;2023-03-24T15:03:40;4.90;;;2.28;;
15002;SDS011;7597;53.590;10.020;2023-03-24T15:06:11;5.32;;;2.28;;
15002;SDS011;7597;53.590;10.020;2023-03-24T15:08:38;5.12;;;2.22;;
15002;SDS011;7597;53.590;10.020;2023-03-24T15:11:05;6.43;;;2.30;;
15002;SDS011;7597;53.590;10.020;2023-03-24T15:13:36;5.87;;;2.28;;
15002;SDS011;7597;53.590;10.020;2023-03-24T15:16:04;5.45;;;2.12;;
15002;SDS011;7597;53.590;10.020;2023-03-24T15:18:30;4.97;;;2.10;;
15002;SDS011;7597;53.590;10.020;2023-03-24T15:20:57;5.35;;;2.40;;
15002;SDS011;7597;53.590;10.020;2023-03-24T15:23:25;4.93;;;1.90;;
15002;SDS011;7597;53.590;10.020;2023-03-24T15:25:51;4.43;;;2.10;;
15002;SDS011;7597;53.590;10.020;2023-03-24T15:28:20;6.00;;;2.08;;
15002;SDS011;7597;53.590;10.020;2023-03-24T15:30:47;4.60;;;2.05;;
15002;SDS011;7597;53.590;10.020;2023-03-24T15:33:14;5.32;;;2.10;;
15002;SDS011;7597;53.590;10.020;2023-03-24T15:35:40;5.00;;;2.07;;
15002;SDS011;7597;53.590;10.020;2023-03-24T15:38:16;4.20;;;1.80;;
15002;SDS011;7597;53.590;10.020;2023-03-24T15:40:34;5.47;;;2.42;;
15002;SDS011;7597;53.590;10.020;2023-03-24T15:43:04;6.95;;;2.50;;
15002;SDS011;7597;53.590;10.020;2023-03-24T15:45:30;5.85;;;2.20;;
15002;SDS011;7597;53.590;10.020;2023-03-24T15:47:56;4.55;;;2.00;;
15002;SDS011;7597;53.590;10.020;2023-03-24T15:50:30;5.15;;;1.92;;
15002;SDS011;7597;53.590;10.020;2023-03-24T15:52:58;4.50;;;2.03;;
15002;SDS011;7597;53.590;10.020;2023-03-24T15:55:30;4.43;;;2.20;;
15002;SDS011;7597;53.590;10.020;2023-03-24T15:57:56;6.45;;;2.35;;
15002;SDS011;7597;53.590;10.020;2023-03-24T16:00:23;4.90;;;2.00;;
15002;SDS011;7597;53.590;10.020;2023-03-24T16:02:51;5.72;;;1.98;;
15002;SDS011;7597;53.590;10.020;2023-03-24T16:05:19;5.00;;;2.00;;
15002;SDS011;7597;53.590;10.020;2023-03-24T16:07:55;4.72;;;2.00;;
15002;SDS011;7597;53.590;10.020;2023-03-24T16:10:30;4.68;;;2.10;;
15002;SDS011;7597;53.590;10.020;2023-03-24T16:13:03;4.15;;;2.00;;
15002;SDS011;7597;53.590;10.020;2023-03-24T16:15:25;5.47;;;2.20;;
15002;SDS011;7597;53.590;10.020;2023-03-24T16:17:52;5.97;;;2.10;;
15002;SDS011;7597;53.590;10.020;2023-03-24T16:20:20;5.17;;;2.00;;
15002;SDS011;7597;53.590;10.020;2023-03-24T16:22:46;5.53;;;2.20;;
15002;SDS011;7597;53.590;10.020;2023-03-24T16:25:13;5.30;;;2.23;;
15002;SDS011;7597;53.590;10.020;2023-03-24T16:27:40;6.53;;;2.50;;
15002;SDS011;7597;53.590;10.020;2023-03-24T16:30:13;4.93;;;2.20;;
15002;SDS011;7597;53.590;10.020;2023-03-24T16:32:39;0.00;;;0.00;;
15002;SDS011;7597;53.590;10.020;2023-03-24T16:35:07;0.00;;;0.00;;
15002;SDS011;7597;53.590;10.020;2023-03-24T16:37:34;0.70;;;0.20;;
15002;SDS011;7597;53.590;10.020;2023-03-24T16:40:01;0.10;;;0.10;;
15002;SDS011;7597;53.590;10.020;2023-03-24T16:42:27;0.20;;;0.20;;
15002;SDS011;7597;53.590;10.020;2023-03-24T16:44:54;0.00;;;0.00;;
15002;SDS011;7597;53.590;10.020;2023-03-24T16:47:21;0.00;;;0.00;;
15002;SDS011;7597;53.590;10.020;2023-03-24T16:49:50;0.47;;;0.47;;
15002;SDS011;7597;53.590;10.020;2023-03-24T16:52:19;0.30;;;0.30;;
15002;SDS011;7597;53.590;10.020;2023-03-24T16:54:45;1.80;;;0.70;;
15002;SDS011;7597;53.590;10.020;2023-03-24T16:57:12;0.80;;;0.40;;
15002;SDS011;7597;53.590;10.020;2023-03-24T16:59:39;0.30;;;0.30;;
15002;SDS011;7597;53.590;10.020;2023-03-24T17:02:07;9.10;;;1.00;;
15002;SDS011;7597;53.590;10.020;2023-03-24T17:04:32;0.45;;;0.45;;
15002;SDS011;7597;53.590;10.020;2023-03-24T17:06:59;0.10;;;0.10;;
15002;SDS011;7597;53.590;10.020;2023-03-24T17:09:25;0.20;;;0.20;;
15002;SDS011;7597;53.590;10.020;2023-03-24T17:11:53;0.13;;;0.13;;
15002;SDS011;7597;53.590;10.020;2023-03-24T17:14:20;0.05;;;0.03;;
15002;SDS011;7597;53.590;10.020;2023-03-24T17:16:49;3.85;;;1.33;;
15002;SDS011;7597;53.590;10.020;2023-03-24T17:19:18;7.00;;;2.60;;
15002;SDS011;7597;53.590;10.020;2023-03-24T17:21:46;6.82;;;2.92;;
15002;SDS011;7597;53.590;10.020;2023-03-24T17:24:13;0.45;;;0.45;;
15002;SDS011;7597;53.590;10.020;2023-03-24T17:26:41;1.00;;;1.00;;
15002;SDS011;7597;53.590;10.020;2023-03-24T17:29:08;6.40;;;2.57;;
15002;SDS011;7597;53.590;10.020;2023-03-24T17:31:35;5.68;;;2.55;;
15002;SDS011;7597;53.590;10.020;2023-03-24T17:34:02;6.55;;;2.53;;
15002;SDS011;7597;53.590;10.020;2023-03-24T17:36:30;4.30;;;2.70;;
15002;SDS011;7597;53.590;10.020;2023-03-24T17:38:57;7.00;;;2.83;;
15002;SDS011;7597;53.590;10.020;2023-03-24T17:41:29;7.65;;;2.90;;
15002;SDS011;7597;53.590;10.020;2023-03-24T17:43:56;7.05;;;2.90;;
15002;SDS011;7597;53.590;10.020;2023-03-24T17:46:24;7.53;;;3.00;;
15002;SDS011;7597;53.590;10.020;2023-03-24T17:48:51;7.15;;;3.10;;
15002;SDS011;7597;53.590;10.020;2023-03-24T17:51:19;7.25;;;3.10;;
15002;SDS011;7597;53.590;10.020;2023-03-24T17:53:45;5.95;;;3.15;;
15002;SDS011;7597;53.590;10.020;2023-03-24T17:56:17;5.75;;;2.90;;
15002;SDS011;7597;53.590;10.020;2023-03-24T17:58:44;7.60;;;3.00;;
15002;SDS011;7597;53.590;10.020;2023-03-24T18:01:10;7.97;;;2.80;;
15002;SDS011;7597;53.590;10.020;2023-03-24T18:03:39;6.25;;;3.10;;
15002;SDS011;7597;53.590;10.020;2023-03-24T18:06:07;6.22;;;2.35;;
15002;SDS011;7597;53.590;10.020;2023-03-24T18:08:35;6.30;;;2.90;;
15002;SDS011;7597;53.590;10.020;2023-03-24T18:11:06;5.75;;;2.60;;
15002;SDS011;7597;53.590;10.020;2023-03-24T18:13:31;5.30;;;2.67;;
15002;SDS011;7597;53.590;10.020;2023-03-24T18:15:58;5.53;;;2.30;;
15002;SDS011;7597;53.590;10.020;2023-03-24T18:18:25;6.28;;;2.50;;
15002;SDS011;7597;53.590;10.020;2023-03-24T18:20:54;5.47;;;2.47;;
15002;SDS011;7597;53.590;10.020;2023-03-24T18:23:29;5.80;;;2.60;;
15002;SDS011;7597;53.590;10.020;2023-03-24T18:25:57;7.43;;;2.90;;
15002;SDS011;7597;53.590;10.020;2023-03-24T18:28:25;6.60;;;2.67;;
15002;SDS011;7597;53.590;10.020;2023-03-24T18:30:52;5.05;;;2.22;;
15002;SDS011;7597;53.590;10.020;2023-03-24T18:33:19;4.03;;;2.30;;
15002;SDS011;7597;53.590;10.020;2023-03-24T18:35:49;6.45;;;2.22;;
15002;SDS011;7597;53.590;10.020;2023-03-24T18:38:15;5.87;;;2.50;;
15002;SDS011;7597;53.590;10.020;2023-03-24T18:40:42;4.57;;;2.65;;
15002;SDS011;7597;53.590;10.020;2023-03-24T18:43:09;5.07;;;2.40;;
15002;SDS011;7597;53.590;10.020;2023-03-24T18:45:35;4.40;;;2.17;;
15002;SDS011;7597;53.590;10.020;2023-03-24T18:48:02;5.93;;;2.40;;
15002;SDS011;7597;53.590;10.020;2023-03-24T18:50:29;5.75;;;2.58;;
15002;SDS011;7597;53.590;10.020;2023-03-24T18:52:56;6.07;;;2.50;;
15002;SDS011;7597;53.590;10.020;2023-03-24T18:55:23;6.10;;;2.65;;
15002;SDS011;7597;53.590;10.020;2023-03-24T18:57:49;5.00;;;2.77;;
15002;SDS011;7597;53.590;10.020;2023-03-24T19:00:16;5.12;;;2.62;;
15002;SDS011;7597;53.590;10.020;2023-03-24T19:02:43;5.20;;;2.60;;
15002;SDS011;7597;53.590;10.020;2023-03-24T19:05:11;5.90;;;2.60;;
15002;SDS011;7597;53.590;10.020;2023-03-24T19:07:37;6.83;;;2.57;;
15002;SDS011;7597;53.590;10.020;2023-03-24T19:10:04;6.50;;;2.72;;
15002;SDS011;7597;53.590;10.020;2023-03-24T19:12:31;0.15;;;0.15;;
15002;SDS011;7597;53.590;10.020;2023-03-24T19:14:59;0.00;;;0.00;;
15002;SDS011;7597;53.590;10.020;2023-03-24T19:17:27;0.50;;;0.10;;
15002;SDS011;7597;53.590;10.020;2023-03-24T19:19:53;0.08;;;0.08;;
15002;SDS011;7597;53.590;10.020;2023-03-24T19:22:21;0.30;;;0.30;;
15002;SDS011;7597;53.590;10.020;2023-03-24T19:24:48;0.32;;;0.32;;
15002;SDS011;7597;53.590;10.020;2023-03-24T19:27:14;0.37;;;0.37;;
15002;SDS011;7597;53.590;10.020;2023-03-24T19:29:43;0.10;;;0.10;;
15002;SDS011;7597;53.590;10.020;2023-03-24T19:32:13;0.10;;;0.10;;
15002;SDS011;7597;53.590;10.020;2023-03-24T19:34:44;0.00;;;0.00;;
15002;SDS011;7597;53.590;10.020;2023-03-24T19:37:18;1.00;;;0.40;;
15002;SDS011;7597;53.590;10.020;2023-03-24T19:39:45;0.25;;;0.25;;
15002;SDS011;7597;53.590;10.020;2023-03-24T19:42:12;2.30;;;1.00;;
15002;SDS011;7597;53.590;10.020;2023-03-24T19:44:40;0.52;;;0.32;;
15002;SDS011;7597;53.590;10.020;2023-03-24T19:47:08;1.40;;;0.35;;
15002;SDS011;7597;53.590;10.020;2023-03-24T19:49:35;0.10;;;0.10;;
15002;SDS011;7597;53.590;10.020;2023-03-24T19:52:03;0.00;;;0.00;;
15002;SDS011;7597;53.590;10.020;2023-03-24T19:54:30;0.20;;;0.13;;
15002;SDS011;7597;53.590;10.020;2023-03-24T19:56:56;0.00;;;0.00;;
15002;SDS011;7597;53.590;10.020;2023-03-24T19:59:23;0.00;;;0.00;;
15002;SDS011;7597;53.590;10.020;2023-03-24T20:01:50;0.00;;;0.00;;
15002;SDS011;7597;53.590;10.020;2023-03-24T20:04:17;0.30;;;0.30;;
15002;SDS011;7597;53.590;10.020;2023-03-24T20:06:43;0.20;;;0.20;;
15002;SDS011;7597;53.590;10.020;2023-03-24T20:09:11;0.00;;;0.00;;
15002;SDS011;7597;53.590;10.020;2023-03-24T20:11:37;3.58;;;2.05;;
15002;SDS011;7597;53.590;10.020;2023-03-24T20:14:03;3.60;;;2.00;;
15002;SDS011;7597;53.590;10.020;2023-03-24T20:16:30;3.80;;;2.30;;
15002;SDS011;7597;53.590;10.020;2023-03-24T20:18:57;3.75;;;2.47;;
15002;SDS011;7597;53.590;10.020;2023-03-24T20:21:23;3.17;;;2.10;;
15002;SDS011;7597;53.590;10.020;2023-03-24T20:23:51;3.65;;;2.20;;
15002;SDS011;7597;53.590;10.020;2023-03-24T20:26:18;2.62;;;2.00;;
15002;SDS011;7597;53.590;10.020;2023-03-24T20:28:45;3.55;;;2.20;;
15002;SDS011;7597;53.590;10.020;2023-03-24T20:31:12;2.53;;;1.77;;
15002;SDS011;7597;53.590;10.020;2023-03-24T20:33:39;2.62;;;2.10;;
15002;SDS011;7597;53.590;10.020;2023-03-24T20:36:06;3.13;;;1.90;;
15002;SDS011;7597;53.590;10.020;2023-03-24T20:38:33;4.05;;;2.35;;
15002;SDS011;7597;53.590;10.020;2023-03-24T20:41:00;3.85;;;2.03;;
15002;SDS011;7597;53.590;10.020;2023-03-24T20:43:27;2.67;;;2.00;;
15002;SDS011;7597;53.590;10.020;2023-03-24T20:45:54;3.28;;;2.08;;
15002;SDS011;7597;53.590;10.020;2023-03-24T20:48:21;3.40;;;1.73;;
15002;SDS011;7597;53.590;10.020;2023-03-24T20:50:47;3.85;;;1.80;;
15002;SDS011;7597;53.590;10.020;2023-03-24T20:53:14;3.20;;;1.90;;
15002;SDS011;7597;53.590;10.020;2023-03-24T20:55:41;4.00;;;2.03;;
15002;SDS011;7597;53.590;10.020;2023-03-24T20:58:11;3.20;;;2.10;;
15002;SDS011;7597;53.590;10.020;2023-03-24T21:00:37;0.03;;;0.03;;
15002;SDS011;7597;53.590;10.020;2023-03-24T21:03:04;1.40;;;0.10;;
15002;SDS011;7597;53.590;10.020;2023-03-24T21:05:31;0.10;;;0.10;;
15002;SDS011;7597;53.590;10.020;2023-03-24T21:08:01;0.00;;;0.00;;
15002;SDS011;7597;53.590;10.020;2023-03-24T21:10:27;0.00;;;0.00;;
15002;SDS011;7597;53.590;10.020;2023-03-24T21:12:54;0.05;;;0.05;;
15002;SDS011;7597;53.590;10.020;2023-03-24T21:15:22;0.60;;;0.50;;
15002;SDS011;7597;53.590;10.020;2023-03-24T21:17:49;0.00;;;0.00;;
15002;SDS011;7597;53.590;10.020;2023-03-24T21:20:16;0.00;;;0.00;;
15002;SDS011;7597;53.590;10.020;2023-03-24T21:22:44;0.00;;;0.00;;
15002;SDS011;7597;53.590;10.020;2023-03-24T21:25:12;0.40;;;0.40;;
15002;SDS011;7597;53.590;10.020;2023-03-24T21:27:39;0.15;;;0.15;;
15002;SDS011;7597;53.590;10.020;2023-03-24T21:30:07;0.20;;;0.00;;
15002;SDS011;7597;53.590;10.020;2023-03-24T21:32:35;0.00;;;0.00;;
15002;SDS011;7597;53.590;10.020;2023-03-24T21:35:02;0.00;;;0.00;;
15002;SDS011;7597;53.590;10.020;2023-03-24T21:37:29;1.00;;;0.52;;
15002;SDS011;7597;53.590;10.020;2023-03-24T21:39:57;0.20;;;0.20;;
15002;SDS011;7597;53.590;10.020;2023-03-24T21:42:24;4.03;;;2.00;;
15002;SDS011;7597;53.590;10.020;2023-03-24T21:44:51;6.03;;;2.62;;
15002;SDS011;7597;53.590;10.020;2023-03-24T21:47:20;4.65;;;2.58;;
15002;SDS011;7597;53.590;10.020;2023-03-24T21:49:47;5.85;;;3.40;;
15002;SDS011;7597;53.590;10.020;2023-03-24T21:52:15;4.37;;;3.62;;
15002;SDS011;7597;53.590;10.020;2023-03-24T21:54:42;7.00;;;4.68;;
15002;SDS011;7597;53.590;10.020;2023-03-24T21:57:13;0.00;;;0.00;;
15002;SDS011;7597;53.590;10.020;2023-03-24T21:59:43;7.05;;;4.87;;
15002;SDS011;7597;53.590;10.020;2023-03-24T22:02:13;7.57;;;4.45;;
15002;SDS011;7597;53.590;10.020;2023-03-24T22:04:39;4.68;;;3.42;;
15002;SDS011;7597;53.590;10.020;2023-03-24T22:07:07;5.50;;;3.62;;
15002;SDS011;7597;53.590;10.020;2023-03-24T22:09:34;5.40;;;2.90;;
15002;SDS011;7597;53.590;10.020;2023-03-24T22:12:04;4.18;;;2.83;;
15002;SDS011;7597;53.590;10.020;2023-03-24T22:14:31;4.80;;;2.50;;
15002;SDS011;7597;53.590;10.020;2023-03-24T22:16:58;1.62;;;0.90;;
15002;SDS011;7597;53.590;10.020;2023-03-24T22:19:27;0.10;;;0.10;;
15002;SDS011;7597;53.590;10.020;2023-03-24T22:21:55;0.13;;;0.13;;
15002;SDS011;7597;53.590;10.020;2023-03-24T22:24:27;0.10;;;0.10;;
15002;SDS011;7597;53.590;10.020;2023-03-24T22:26:56;0.00;;;0.00;;
15002;SDS011;7597;53.590;10.020;2023-03-24T22:29:24;0.10;;;0.10;;
15002;SDS011;7597;53.590;10.020;2023-03-24T22:31:50;0.00;;;0.00;;
15002;SDS011;7597;53.590;10.020;2023-03-24T22:34:18;0.03;;;0.03;;
15002;SDS011;7597;53.590;10.020;2023-03-24T22:36:45;0.00;;;0.00;;
15002;SDS011;7597;53.590;10.020;2023-03-24T22:39:12;0.00;;;0.00;;
15002;SDS011;7597;53.590;10.020;2023-03-24T22:41:39;1.30;;;0.00;;
15002;SDS011;7597;53.590;10.020;2023-03-24T22:44:06;0.00;;;0.00;;
15002;SDS011;7597;53.590;10.020;2023-03-24T22:46:33;0.20;;;0.20;;
15002;SDS011;7597;53.590;10.020;2023-03-24T22:48:59;19.77;;;4.97;;
15002;SDS011;7597;53.590;10.020;2023-03-24T22:51:27;0.00;;;0.00;;
15002;SDS011;7597;53.590;10.020;2023-03-24T22:53:53;0.05;;;0.00;;
15002;SDS011;7597;53.590;10.020;2023-03-24T22:56:20;0.00;;;0.00;;
